Hlavní strana
METAR-TAF:

METAR-TAF

Letiště :

Enontekiö, Finsko

zeměpisná šířka: 68-21-52N, zeměpisná délka: 023-25-39E, výška: 308 m

Aktuální stav počasí

Zpráva byla vytvořena před 34 minutami, v 11:50 UTC
Jihozápadní vítr 11 kt
Teplota 10°C
Vlhkost vzduchu 57%
Tlak 1014 hPa
Viditelnost 10 km a více
Žádná oblačnost pod 1500 m, nevyskytují se cumulonimby.

METAR: EFET 231150Z AUTO 23011KT CAVOK 10/02 Q1014

Čas: 15:24 (12:24 UTC)


TAF: chybějící

Stav a předpovědi počasí z více než 4 000 letišť (zprávy METAR a TAF).

Červené a žluté tečky na mapě představují dostupné meteorologické stanice.

Když kurzor umístíte na tečku, zobrazí se název stanice.

Pak kliknutím zobrazíte stav a předpověď počasí.

Chcete-li změnit mapu, kliknutím na zelené tlačítko se znaménkem +mapu přiblížíte, kliknutím na zelené tlačítko se znaménkem – mapu oddálíte a kliknutím na zelené šipky přejdete na sousední mapy.


METAR-TAF: